Time;durP1;ratioP1;P1;durP2;ratioP2;P2;SDS_P1;SDS_P2;PMS_P1;PMS_P2;Temp;Humidity;BMP_temperature;BMP_pressure;BME280_temperature;BME280_humidity;BME280_pressure;Samples;Min_cycle;Max_cycle;Signal;HPM_P1;HPM_P2
2023/05/27 00:02:21;;;;;;;18.63;4.78;;;;;;;;;;4989269;28;20033;-60
2023/05/27 00:04:47;;;;;;;12.68;4.50;;;;;;;;;;4990505;28;20041;-59
2023/05/27 00:07:12;;;;;;;15.80;4.40;;;;;;;;;;4990559;28;20026;-58
2023/05/27 00:09:38;;;;;;;16.77;4.68;;;;;;;;;;4990541;28;20129;-57
2023/05/27 00:12:04;;;;;;;17.75;4.78;;;;;;;;;;4989848;28;20768;-60
2023/05/27 00:14:29;;;;;;;14.43;4.43;;;;;;;;;;4991702;28;20382;-59
2023/05/27 00:16:55;;;;;;;12.93;4.00;;;;;;;;;;4993231;28;20049;-59
2023/05/27 00:19:20;;;;;;;19.10;4.57;;;;;;;;;;4994887;28;20128;-60
2023/05/27 00:21:46;;;;;;;14.77;4.78;;;;;;;;;;4992359;28;20041;-60
2023/05/27 00:24:11;;;;;;;15.80;4.70;;;;;;;;;;4992628;28;20042;-59
2023/05/27 00:26:38;;;;;;;13.02;4.32;;;;;;;;;;4995129;28;20110;-59
2023/05/27 00:29:04;;;;;;;12.50;4.22;;;;;;;;;;4992731;28;20084;-60
2023/05/27 00:31:29;;;;;;;16.20;4.78;;;;;;;;;;4993219;28;20030;-59
2023/05/27 00:33:55;;;;;;;18.40;4.75;;;;;;;;;;4993328;28;20038;-61
2023/05/27 00:36:20;;;;;;;16.33;5.03;;;;;;;;;;4995242;28;20030;-60
2023/05/27 00:38:46;;;;;;;12.23;4.45;;;;;;;;;;4993068;28;20387;-61
2023/05/27 00:41:12;;;;;;;21.20;4.95;;;;;;;;;;4993451;28;20479;-60
2023/05/27 00:43:38;;;;;;;13.43;4.78;;;;;;;;;;4993315;28;20121;-60
2023/05/27 00:46:04;;;;;;;14.68;4.60;;;;;;;;;;4993606;28;20158;-58
2023/05/27 00:48:30;;;;;;;14.55;5.30;;;;;;;;;;4994416;28;20065;-60
2023/05/27 00:50:55;;;;;;;16.30;5.72;;;;;;;;;;4992511;28;20034;-58
2023/05/27 00:53:22;;;;;;;15.50;5.57;;;;;;;;;;4988120;28;20037;-61
2023/05/27 00:55:49;;;;;;;18.25;4.72;;;;;;;;;;4989645;28;20448;-59
2023/05/27 00:58:15;;;;;;;18.30;4.95;;;;;;;;;;4994448;28;20475;-58
2023/05/27 01:00:41;;;;;;;13.63;4.93;;;;;;;;;;4994361;28;20072;-58
2023/05/27 01:03:07;;;;;;;17.30;5.38;;;;;;;;;;4988283;28;20634;-59
2023/05/27 01:05:33;;;;;;;19.63;5.72;;;;;;;;;;4990755;28;20030;-58
2023/05/27 01:08:17;;;;;;;14.80;5.00;;;;;;;;;;4993921;28;20483;-59
2023/05/27 01:10:50;;;;;;;15.45;4.90;;;;;;;;;;4994345;28;20114;-58
2023/05/27 01:13:21;;;;;;;16.20;4.85;;;;;;;;;;4992339;28;20424;-58
2023/05/27 01:15:48;;;;;;;18.15;5.10;;;;;;;;;;4989175;28;20038;-61
2023/05/27 01:18:16;;;;;;;18.33;5.22;;;;;;;;;;4992921;28;20034;-59
2023/05/27 01:20:43;;;;;;;19.35;5.30;;;;;;;;;;4991104;28;20030;-58
2023/05/27 01:23:09;;;;;;;15.05;5.32;;;;;;;;;;4989256;28;20038;-58
2023/05/27 01:25:35;;;;;;;15.98;5.10;;;;;;;;;;4993929;28;20080;-58
2023/05/27 01:28:00;;;;;;;17.33;5.47;;;;;;;;;;4993078;28;20034;-60
2023/05/27 01:30:26;;;;;;;18.63;5.03;;;;;;;;;;4991783;28;20038;-59
2023/05/27 01:33:00;;;;;;;20.05;5.88;;;;;;;;;;4985998;28;20507;-58
2023/05/27 01:35:33;;;;;;;17.88;5.50;;;;;;;;;;4993344;28;20027;-59
2023/05/27 01:38:02;;;;;;;11.73;4.95;;;;;;;;;;4989935;28;20030;-58
2023/05/27 01:40:31;;;;;;;14.00;5.15;;;;;;;;;;4992937;28;20050;-59
2023/05/27 01:42:57;;;;;;;12.52;5.00;;;;;;;;;;4990793;28;20093;-58
2023/05/27 01:45:23;;;;;;;16.88;5.20;;;;;;;;;;4993681;28;20488;-58
2023/05/27 01:47:48;;;;;;;18.95;5.75;;;;;;;;;;4991261;28;20043;-59
2023/05/27 01:50:13;;;;;;;20.25;5.85;;;;;;;;;;4989816;28;20026;-60
2023/05/27 01:52:39;;;;;;;15.77;5.82;;;;;;;;;;4991166;28;20026;-59
2023/05/27 01:55:05;;;;;;;18.52;5.20;;;;;;;;;;4992749;28;20121;-58
2023/05/27 01:57:31;;;;;;;17.42;5.75;;;;;;;;;;4993451;28;20093;-58
2023/05/27 01:59:56;;;;;;;13.57;5.80;;;;;;;;;;4991663;28;20124;-57
2023/05/27 02:02:22;;;;;;;19.20;5.65;;;;;;;;;;4990985;28;20554;-59
2023/05/27 02:04:47;;;;;;;19.05;5.50;;;;;;;;;;4988357;28;20034;-59
2023/05/27 02:07:13;;;;;;;15.38;5.65;;;;;;;;;;4992548;28;20085;-59
2023/05/27 02:09:38;;;;;;;19.83;5.60;;;;;;;;;;4993212;28;20042;-58
2023/05/27 02:12:05;;;;;;;15.43;5.40;;;;;;;;;;4992181;28;20034;-59
2023/05/27 02:14:30;;;;;;;18.30;5.45;;;;;;;;;;4991024;28;20079;-58
2023/05/27 02:16:56;;;;;;;21.05;5.03;;;;;;;;;;4991779;28;20057;-59
2023/05/27 02:19:22;;;;;;;17.92;5.22;;;;;;;;;;4987461;28;20061;-58
2023/05/27 02:21:47;;;;;;;15.02;5.30;;;;;;;;;;4991644;28;20466;-58
2023/05/27 02:24:12;;;;;;;15.32;5.28;;;;;;;;;;4984982;28;20035;-59
2023/05/27 02:26:38;;;;;;;22.85;5.47;;;;;;;;;;4985442;28;20092;-59
2023/05/27 02:29:03;;;;;;;21.80;5.82;;;;;;;;;;4990873;28;20030;-59
2023/05/27 02:31:29;;;;;;;21.45;5.85;;;;;;;;;;4992600;28;20045;-58
2023/05/27 02:33:54;;;;;;;16.75;6.05;;;;;;;;;;4988462;28;20026;-59
2023/05/27 02:36:21;;;;;;;14.32;5.60;;;;;;;;;;4991599;28;20459;-59
2023/05/27 02:38:46;;;;;;;18.75;5.63;;;;;;;;;;4990487;28;20450;-58
2023/05/27 02:41:11;;;;;;;30.77;6.18;;;;;;;;;;4990410;28;20100;-58
2023/05/27 02:43:37;;;;;;;17.98;5.97;;;;;;;;;;4992895;28;20030;-58
2023/05/27 02:46:02;;;;;;;18.67;6.07;;;;;;;;;;4989776;28;20022;-59
2023/05/27 02:48:28;;;;;;;19.48;5.47;;;;;;;;;;4991039;28;20395;-58
2023/05/27 02:50:53;;;;;;;17.70;5.32;;;;;;;;;;4988981;28;20034;-59
2023/05/27 02:53:19;;;;;;;17.33;5.55;;;;;;;;;;4989044;28;20574;-57
2023/05/27 02:55:44;;;;;;;18.15;5.80;;;;;;;;;;4990070;28;20451;-58
2023/05/27 02:58:10;;;;;;;16.05;5.90;;;;;;;;;;4991439;28;20034;-58
2023/05/27 03:00:35;;;;;;;14.77;5.28;;;;;;;;;;4991943;28;20649;-59
2023/05/27 03:03:03;;;;;;;19.80;5.60;;;;;;;;;;4988904;28;20030;-59
2023/05/27 03:05:29;;;;;;;15.32;5.95;;;;;;;;;;4988817;28;20030;-58
2023/05/27 03:07:54;;;;;;;18.48;6.28;;;;;;;;;;4989825;28;20083;-59
2023/05/27 03:10:20;;;;;;;14.82;5.32;;;;;;;;;;4991346;28;20500;-58
2023/05/27 03:12:45;;;;;;;23.45;6.20;;;;;;;;;;4992214;28;20042;-58
2023/05/27 03:15:10;;;;;;;18.33;6.28;;;;;;;;;;4991234;28;20030;-57
2023/05/27 03:17:37;;;;;;;14.73;5.65;;;;;;;;;;4989557;28;20508;-58
2023/05/27 03:20:05;;;;;;;18.80;5.93;;;;;;;;;;4986780;28;20364;-59
2023/05/27 03:22:31;;;;;;;15.90;5.93;;;;;;;;;;4990314;28;20340;-57
2023/05/27 03:24:57;;;;;;;16.02;6.22;;;;;;;;;;4990780;28;20062;-59
2023/05/27 03:27:22;;;;;;;19.25;5.78;;;;;;;;;;4985690;28;20098;-60
2023/05/27 03:29:48;;;;;;;16.25;5.97;;;;;;;;;;4989944;28;20042;-59
2023/05/27 03:32:13;;;;;;;23.45;6.47;;;;;;;;;;4990287;28;20495;-60
2023/05/27 03:34:38;;;;;;;16.95;6.03;;;;;;;;;;4990992;28;20092;-61
2023/05/27 03:37:04;;;;;;;17.20;6.00;;;;;;;;;;4988764;28;20459;-60
2023/05/27 03:39:29;;;;;;;19.75;6.43;;;;;;;;;;4990951;28;20053;-60
2023/05/27 03:41:55;;;;;;;21.92;7.10;;;;;;;;;;4990350;28;20031;-60
2023/05/27 03:44:20;;;;;;;20.88;6.78;;;;;;;;;;4990097;28;20039;-60
2023/05/27 03:46:46;;;;;;;22.38;6.43;;;;;;;;;;4989408;28;20387;-59
2023/05/27 03:49:11;;;;;;;20.00;6.35;;;;;;;;;;4991167;28;20491;-59
2023/05/27 03:51:37;;;;;;;23.08;6.60;;;;;;;;;;4993389;28;20491;-59
2023/05/27 03:54:02;;;;;;;19.83;6.50;;;;;;;;;;4992502;28;20046;-59
2023/05/27 03:56:28;;;;;;;17.73;6.18;;;;;;;;;;4991927;28;20046;-59
2023/05/27 03:58:53;;;;;;;16.02;6.88;;;;;;;;;;4995132;28;20110;-59
2023/05/27 04:01:20;;;;;;;16.67;6.32;;;;;;;;;;4994037;28;20034;-59
2023/05/27 04:03:45;;;;;;;18.92;5.93;;;;;;;;;;4987739;28;20085;-59
2023/05/27 04:06:11;;;;;;;17.42;6.22;;;;;;;;;;4993566;28;20038;-59
2023/05/27 04:08:37;;;;;;;18.00;6.65;;;;;;;;;;4994571;28;20041;-59
2023/05/27 04:11:02;;;;;;;19.35;6.18;;;;;;;;;;4994134;28;20026;-58
2023/05/27 04:13:28;;;;;;;15.95;5.72;;;;;;;;;;4994157;28;20266;-58
2023/05/27 04:15:53;;;;;;;14.82;5.60;;;;;;;;;;4991253;28;20475;-60
2023/05/27 04:18:20;;;;;;;19.90;7.13;;;;;;;;;;4993071;28;20090;-59
2023/05/27 04:20:47;;;;;;;18.55;6.35;;;;;;;;;;4995529;28;20030;-59
2023/05/27 04:23:12;;;;;;;18.08;6.30;;;;;;;;;;4993096;28;20110;-60
2023/05/27 04:25:39;;;;;;;26.30;6.45;;;;;;;;;;4993182;28;20117;-59
2023/05/27 04:28:05;;;;;;;22.85;6.38;;;;;;;;;;4991927;28;20586;-59
2023/05/27 04:30:31;;;;;;;20.77;5.65;;;;;;;;;;4994015;28;20454;-57
2023/05/27 04:32:56;;;;;;;16.63;5.97;;;;;;;;;;4994333;28;20121;-57
2023/05/27 04:35:23;;;;;;;26.23;6.40;;;;;;;;;;4989976;28;20110;-59
2023/05/27 04:37:48;;;;;;;24.13;6.60;;;;;;;;;;4992923;28;20109;-59
2023/05/27 04:40:14;;;;;;;18.42;6.10;;;;;;;;;;4993274;28;20122;-59
2023/05/27 04:42:39;;;;;;;17.08;6.40;;;;;;;;;;4995219;28;20026;-56
2023/05/27 04:45:06;;;;;;;12.48;5.90;;;;;;;;;;4991218;28;20045;-59
2023/05/27 04:47:36;;;;;;;16.70;5.80;;;;;;;;;;4990923;28;20082;-58
2023/05/27 04:50:05;;;;;;;18.48;5.97;;;;;;;;;;4992062;28;20048;-58
2023/05/27 04:52:36;;;;;;;16.35;5.68;;;;;;;;;;4989790;28;20095;-59
2023/05/27 04:55:03;;;;;;;;;;;;;;;;;;4981496;28;20090;-60
2023/05/27 04:57:28;;;;;;;16.52;5.85;;;;;;;;;;4990185;28;19944;-59
2023/05/27 05:02:39;;;;;;;16.30;5.93;;;;;;;;;;4988814;28;20031;-60
2023/05/27 05:05:09;;;;;;;20.35;6.20;;;;;;;;;;4983832;28;20117;-57
2023/05/27 05:07:37;;;;;;;19.77;6.72;;;;;;;;;;4987994;28;20030;-59
2023/05/27 05:10:04;;;;;;;15.32;5.75;;;;;;;;;;4993005;28;20073;-60
2023/05/27 05:12:29;;;;;;;18.00;5.93;;;;;;;;;;4993642;28;20031;-59
2023/05/27 05:14:55;;;;;;;20.23;6.80;;;;;;;;;;4993598;28;20035;-59
2023/05/27 05:17:23;;;;;;;19.08;6.03;;;;;;;;;;4993781;28;20065;-59
2023/05/27 05:19:49;;;;;;;18.02;6.32;;;;;;;;;;4994182;28;20045;-59
2023/05/27 05:22:18;;;;;;;14.05;5.65;;;;;;;;;;4993973;28;20026;-57
2023/05/27 05:24:46;;;;;;;17.00;5.72;;;;;;;;;;4992508;28;20034;-59
2023/05/27 05:27:12;;;;;;;16.48;5.80;;;;;;;;;;4985865;28;20496;-60
2023/05/27 05:29:37;;;;;;;17.40;5.88;;;;;;;;;;4994554;28;20093;-58
2023/05/27 05:32:03;;;;;;;15.85;6.00;;;;;;;;;;4992568;28;20123;-60
2023/05/27 05:34:29;;;;;;;17.38;6.20;;;;;;;;;;4993367;28;20038;-58
2023/05/27 05:36:54;;;;;;;19.17;6.07;;;;;;;;;;4994301;28;20038;-59
2023/05/27 05:39:20;;;;;;;15.43;5.63;;;;;;;;;;4993259;28;20657;-58
2023/05/27 05:41:46;;;;;;;24.73;6.40;;;;;;;;;;4994263;28;20122;-58
2023/05/27 05:44:11;;;;;;;15.68;6.00;;;;;;;;;;4990967;28;20502;-59
2023/05/27 05:46:37;;;;;;;21.35;6.45;;;;;;;;;;4994287;28;20030;-58
2023/05/27 05:49:02;;;;;;;19.85;6.13;;;;;;;;;;4993630;28;20113;-60
2023/05/27 05:51:27;;;;;;;20.50;6.50;;;;;;;;;;4993910;28;20030;-59
2023/05/27 05:53:53;;;;;;;15.38;6.75;;;;;;;;;;4992700;28;20065;-61
2023/05/27 05:56:18;;;;;;;16.50;5.65;;;;;;;;;;4991969;28;20478;-61
2023/05/27 05:58:44;;;;;;;19.77;6.38;;;;;;;;;;4993939;28;20451;-60
2023/05/27 06:01:09;;;;;;;16.52;5.75;;;;;;;;;;4991739;28;20030;-59
2023/05/27 06:03:36;;;;;;;15.45;5.90;;;;;;;;;;4992301;28;20030;-61
2023/05/27 06:06:02;;;;;;;19.30;5.80;;;;;;;;;;4992832;28;20046;-60
2023/05/27 06:08:28;;;;;;;14.57;5.97;;;;;;;;;;4992988;28;20045;-59
2023/05/27 06:10:53;;;;;;;19.55;6.15;;;;;;;;;;4992786;28;20030;-59
2023/05/27 06:13:19;;;;;;;19.38;6.38;;;;;;;;;;4990787;28;20037;-58
2023/05/27 06:15:44;;;;;;;18.80;6.60;;;;;;;;;;4992434;28;20038;-59
2023/05/27 06:18:10;;;;;;;18.45;5.78;;;;;;;;;;4992401;28;20084;-60
2023/05/27 06:20:35;;;;;;;15.48;5.93;;;;;;;;;;4993664;28;20057;-59
2023/05/27 06:23:01;;;;;;;21.02;6.72;;;;;;;;;;4991083;28;20360;-60
2023/05/27 06:25:26;;;;;;;19.45;6.85;;;;;;;;;;4992556;28;20046;-59
2023/05/27 06:27:52;;;;;;;15.85;5.82;;;;;;;;;;4990397;28;20023;-59
2023/05/27 06:30:17;;;;;;;21.38;6.43;;;;;;;;;;4991017;28;20102;-60
2023/05/27 06:32:42;;;;;;;18.17;6.38;;;;;;;;;;4992196;28;20426;-59
2023/05/27 06:35:08;;;;;;;22.45;6.85;;;;;;;;;;4991277;28;20094;-60
2023/05/27 06:37:33;;;;;;;16.95;6.00;;;;;;;;;;4993455;28;20034;-59
2023/05/27 06:39:59;;;;;;;17.17;6.80;;;;;;;;;;4991423;28;20055;-60
2023/05/27 06:42:24;;;;;;;20.95;5.90;;;;;;;;;;4991996;28;20609;-60
2023/05/27 06:44:50;;;;;;;15.35;6.65;;;;;;;;;;4989782;28;20398;-60
2023/05/27 06:47:15;;;;;;;21.77;6.85;;;;;;;;;;4992318;28;20467;-60
2023/05/27 06:49:40;;;;;;;21.08;6.30;;;;;;;;;;4992088;28;20052;-60
2023/05/27 06:52:06;;;;;;;19.92;6.18;;;;;;;;;;4992670;28;20382;-60
2023/05/27 06:54:32;;;;;;;20.67;6.22;;;;;;;;;;4990308;28;20038;-58
2023/05/27 06:56:57;;;;;;;15.48;6.10;;;;;;;;;;4992874;28;20089;-60
2023/05/27 06:59:23;;;;;;;21.33;6.22;;;;;;;;;;4991907;28;20026;-60
2023/05/27 07:01:48;;;;;;;18.60;5.88;;;;;;;;;;4992914;28;20022;-59
2023/05/27 07:04:14;;;;;;;16.67;6.75;;;;;;;;;;4988691;28;20042;-60
2023/05/27 07:06:40;;;;;;;18.63;6.32;;;;;;;;;;4986930;28;20539;-59
2023/05/27 07:09:05;;;;;;;21.60;6.90;;;;;;;;;;4992420;28;20038;-61
2023/05/27 07:11:31;;;;;;;18.23;6.30;;;;;;;;;;4991878;28;20456;-59
2023/05/27 07:13:57;;;;;;;19.60;6.25;;;;;;;;;;4990128;28;20086;-59
2023/05/27 07:16:22;;;;;;;21.42;6.60;;;;;;;;;;4991750;28;20038;-59
2023/05/27 07:18:47;;;;;;;18.80;6.22;;;;;;;;;;4991218;28;20459;-60
2023/05/27 07:21:13;;;;;;;20.35;6.25;;;;;;;;;;4989827;28;20070;-60
2023/05/27 07:23:38;;;;;;;15.75;6.18;;;;;;;;;;4991694;28;20464;-61
2023/05/27 07:26:04;;;;;;;20.55;6.20;;;;;;;;;;4992430;28;20033;-60
2023/05/27 07:28:29;;;;;;;17.92;6.40;;;;;;;;;;4991589;28;20114;-60
2023/05/27 07:30:55;;;;;;;19.42;5.88;;;;;;;;;;4990854;28;20042;-61
2023/05/27 07:33:20;;;;;;;20.83;6.55;;;;;;;;;;4990906;28;20109;-58
2023/05/27 07:35:46;;;;;;;16.63;6.47;;;;;;;;;;4991009;28;20125;-60
2023/05/27 07:38:11;;;;;;;16.40;6.22;;;;;;;;;;4979908;28;20117;-60
2023/05/27 07:40:37;;;;;;;19.38;6.40;;;;;;;;;;4992017;28;20078;-60
2023/05/27 07:43:02;;;;;;;19.85;6.45;;;;;;;;;;4992369;28;20022;-59
2023/05/27 07:45:28;;;;;;;18.73;6.35;;;;;;;;;;4990410;28;20118;-60
2023/05/27 07:47:54;;;;;;;17.52;6.43;;;;;;;;;;4990743;28;20027;-60
2023/05/27 07:50:19;;;;;;;18.35;6.53;;;;;;;;;;4991388;28;20081;-60
2023/05/27 07:52:44;;;;;;;21.17;6.90;;;;;;;;;;4992329;28;20027;-60
2023/05/27 07:55:10;;;;;;;13.93;6.10;;;;;;;;;;4991272;28;20058;-60
2023/05/27 07:57:35;;;;;;;20.05;6.35;;;;;;;;;;4988526;28;20039;-60
2023/05/27 08:00:02;;;;;;;16.90;6.40;;;;;;;;;;4985610;28;20033;-60
2023/05/27 08:02:27;;;;;;;17.45;6.70;;;;;;;;;;4991043;28;20027;-59
2023/05/27 08:04:53;;;;;;;18.20;6.25;;;;;;;;;;4992121;28;20030;-59
2023/05/27 08:07:18;;;;;;;18.77;7.15;;;;;;;;;;4990629;28;20030;-59
2023/05/27 08:09:43;;;;;;;17.85;6.28;;;;;;;;;;4976915;28;20396;-59
2023/05/27 08:12:09;;;;;;;18.58;6.60;;;;;;;;;;4972147;28;20041;-60
2023/05/27 08:14:35;;;;;;;15.20;6.40;;;;;;;;;;4971861;28;20045;-60
2023/05/27 08:17:00;;;;;;;19.38;6.40;;;;;;;;;;4979440;28;20042;-59
2023/05/27 08:19:27;;;;;;;16.83;5.90;;;;;;;;;;4980402;28;20042;-60
2023/05/27 08:21:53;;;;;;;20.13;6.68;;;;;;;;;;4989689;28;20038;-60
2023/05/27 08:24:21;;;;;;;16.48;6.20;;;;;;;;;;4990184;28;20428;-60
2023/05/27 08:26:47;;;;;;;18.05;6.10;;;;;;;;;;4989083;28;20111;-60
2023/05/27 08:29:13;;;;;;;20.00;6.57;;;;;;;;;;4991400;28;20521;-60
2023/05/27 08:31:40;;;;;;;22.58;6.25;;;;;;;;;;4985313;28;20105;-60
2023/05/27 08:34:05;;;;;;;16.85;5.97;;;;;;;;;;4972540;28;20459;-60
2023/05/27 08:36:31;;;;;;;16.95;6.43;;;;;;;;;;4975194;28;20045;-60
2023/05/27 08:38:57;;;;;;;16.70;5.80;;;;;;;;;;4976137;28;20432;-60
2023/05/27 08:41:23;;;;;;;15.52;6.28;;;;;;;;;;4975286;28;20468;-60
2023/05/27 08:43:49;;;;;;;16.92;6.07;;;;;;;;;;4975331;28;20027;-60
2023/05/27 08:46:15;;;;;;;17.88;5.82;;;;;;;;;;4985978;28;20039;-59
2023/05/27 08:48:41;;;;;;;17.85;5.82;;;;;;;;;;4994796;28;20035;-60
2023/05/27 08:51:07;;;;;;;12.98;5.65;;;;;;;;;;4995184;28;20077;-57
2023/05/27 08:53:33;;;;;;;18.15;6.00;;;;;;;;;;4994212;28;20156;-59
2023/05/27 08:56:01;;;;;;;15.10;6.07;;;;;;;;;;4993270;28;20030;-60
2023/05/27 08:58:27;;;;;;;17.58;5.97;;;;;;;;;;4991697;28;20391;-60
2023/05/27 09:00:52;;;;;;;13.90;5.20;;;;;;;;;;4994852;28;20030;-60
2023/05/27 09:03:19;;;;;;;18.88;5.95;;;;;;;;;;4992447;28;20045;-60
2023/05/27 09:05:44;;;;;;;16.90;5.80;;;;;;;;;;4994985;28;20037;-59
2023/05/27 09:08:10;;;;;;;19.45;6.43;;;;;;;;;;4994092;28;20042;-59
2023/05/27 09:10:40;;;;;;;14.57;5.35;;;;;;;;;;4994108;28;20824;-60
2023/05/27 09:13:06;;;;;;;17.92;6.00;;;;;;;;;;4994418;28;20467;-60
2023/05/27 09:15:32;;;;;;;16.23;6.03;;;;;;;;;;4992508;28;20034;-60
2023/05/27 09:17:58;;;;;;;16.33;6.05;;;;;;;;;;4992602;28;20041;-60
2023/05/27 09:20:27;;;;;;;17.17;6.32;;;;;;;;;;4993896;28;20034;-60
2023/05/27 09:23:00;;;;;;;18.02;6.13;;;;;;;;;;4994586;28;20418;-59
2023/05/27 09:25:27;;;;;;;15.57;6.07;;;;;;;;;;4992689;28;20027;-59
2023/05/27 09:27:53;;;;;;;17.35;6.07;;;;;;;;;;4992148;28;20062;-59
2023/05/27 09:30:22;;;;;;;19.15;5.78;;;;;;;;;;4992813;28;20026;-60
2023/05/27 09:32:49;;;;;;;19.17;5.82;;;;;;;;;;4992852;28;20023;-59
2023/05/27 09:35:16;;;;;;;18.00;5.63;;;;;;;;;;4994155;28;20100;-60
2023/05/27 09:37:43;;;;;;;12.85;5.28;;;;;;;;;;4991989;28;20033;-59
2023/05/27 09:40:12;;;;;;;15.18;5.68;;;;;;;;;;4993908;28;20062;-59
2023/05/27 09:42:45;;;;;;;15.90;5.72;;;;;;;;;;4993552;28;20023;-59
2023/05/27 09:45:18;;;;;;;19.10;5.63;;;;;;;;;;4993455;28;20030;-59
2023/05/27 09:47:49;;;;;;;16.05;5.40;;;;;;;;;;4992094;28;20463;-59
2023/05/27 09:50:16;;;;;;;19.13;5.55;;;;;;;;;;4991019;28;20030;-59
2023/05/27 09:52:43;;;;;;;12.82;5.32;;;;;;;;;;4978921;28;20050;-59
2023/05/27 09:55:11;;;;;;;14.07;4.90;;;;;;;;;;4991039;28;20038;-60
2023/05/27 09:57:36;;;;;;;13.88;4.80;;;;;;;;;;4989310;28;20054;-60
2023/05/27 10:00:17;;;;;;;14.93;4.80;;;;;;;;;;4992420;28;20037;-60
2023/05/27 10:02:46;;;;;;;13.32;4.78;;;;;;;;;;4990747;28;20034;-60
2023/05/27 10:05:16;;;;;;;21.75;5.38;;;;;;;;;;4988420;28;20434;-60
2023/05/27 10:07:46;;;;;;;15.20;5.00;;;;;;;;;;4990661;28;20037;-60
2023/05/27 10:10:14;;;;;;;14.15;4.90;;;;;;;;;;4993718;28;20033;-60
2023/05/27 10:12:43;;;;;;;13.70;4.20;;;;;;;;;;4992926;28;20030;-60
2023/05/27 10:15:09;;;;;;;15.15;4.80;;;;;;;;;;4993276;28;20169;-59
2023/05/27 10:17:48;;;;;;;13.32;4.70;;;;;;;;;;4992634;28;20109;-60
2023/05/27 10:20:33;;;;;;;13.90;4.35;;;;;;;;;;4992740;28;20463;-60
2023/05/27 10:23:25;;;;;;;17.50;5.47;;;;;;;;;;4990930;28;20117;-60
2023/05/27 10:26:05;;;;;;;14.43;4.85;;;;;;;;;;4990856;28;20502;-59
2023/05/27 10:28:40;;;;;;;11.45;4.68;;;;;;;;;;4986559;28;20386;-59
2023/05/27 10:31:09;;;;;;;17.30;5.13;;;;;;;;;;4987442;28;20046;-60
2023/05/27 10:33:37;;;;;;;15.57;4.50;;;;;;;;;;4992001;28;20053;-60
2023/05/27 10:36:11;;;;;;;9.68;3.70;;;;;;;;;;4991871;28;20038;-60
2023/05/27 10:38:37;;;;;;;11.50;4.28;;;;;;;;;;4992158;28;20038;-59
2023/05/27 10:41:05;;;;;;;14.70;4.50;;;;;;;;;;4993274;28;20042;-60
2023/05/27 10:43:31;;;;;;;13.45;4.55;;;;;;;;;;4991486;28;20038;-60
2023/05/27 10:46:12;;;;;;;10.95;4.13;;;;;;;;;;4992808;28;20027;-60
2023/05/27 10:48:39;;;;;;;13.57;4.30;;;;;;;;;;4978927;28;20038;-60
2023/05/27 10:51:06;;;;;;;14.40;4.43;;;;;;;;;;4973349;28;20114;-60
2023/05/27 10:53:34;;;;;;;13.77;4.68;;;;;;;;;;4977540;28;20419;-60
2023/05/27 10:56:00;;;;;;;14.40;4.18;;;;;;;;;;4984265;28;20113;-60
2023/05/27 10:58:26;;;;;;;12.02;4.25;;;;;;;;;;4991615;28;20121;-60
2023/05/27 11:00:52;;;;;;;13.48;4.20;;;;;;;;;;4990758;28;20038;-60
2023/05/27 11:03:26;;;;;;;13.43;5.28;;;;;;;;;;4973363;28;20027;-60
2023/05/27 11:06:01;;;;;;;13.57;4.18;;;;;;;;;;4976438;28;20031;-60
2023/05/27 11:08:26;;;;;;;11.50;4.40;;;;;;;;;;4972474;28;20093;-60
2023/05/27 11:10:58;;;;;;;14.52;4.18;;;;;;;;;;4973130;28;20039;-60
2023/05/27 11:13:32;;;;;;;11.18;4.03;;;;;;;;;;4986258;28;20491;-60
2023/05/27 11:15:59;;;;;;;16.67;4.88;;;;;;;;;;4991977;28;20026;-60
2023/05/27 11:18:25;;;;;;;15.68;4.40;;;;;;;;;;4991754;28;20117;-60
2023/05/27 11:20:50;;;;;;;11.40;3.92;;;;;;;;;;4986938;28;20174;-60
2023/05/27 11:23:16;;;;;;;11.05;4.13;;;;;;;;;;4990089;28;20041;-60
2023/05/27 11:25:44;;;;;;;12.63;4.30;;;;;;;;;;4989621;28;20022;-60
2023/05/27 11:28:19;;;;;;;9.80;4.40;;;;;;;;;;4980311;28;20054;-60
2023/05/27 11:30:44;;;;;;;11.23;4.32;;;;;;;;;;4977686;28;20096;-60
2023/05/27 11:33:10;;;;;;;13.15;4.25;;;;;;;;;;4988767;28;20434;-60
2023/05/27 11:35:35;;;;;;;10.25;4.22;;;;;;;;;;4991478;28;20026;-60
2023/05/27 11:38:04;;;;;;;11.18;4.30;;;;;;;;;;4992397;28;20026;-60
2023/05/27 11:40:39;;;;;;;9.90;3.88;;;;;;;;;;4991345;28;20397;-60
2023/05/27 11:43:04;;;;;;;12.50;4.30;;;;;;;;;;4986995;28;20039;-60
2023/05/27 11:45:35;;;;;;;12.95;4.53;;;;;;;;;;4983875;28;20038;-60
2023/05/27 11:48:02;;;;;;;11.18;4.22;;;;;;;;;;4992160;28;20364;-59
2023/05/27 11:50:28;;;;;;;11.88;4.50;;;;;;;;;;4991500;28;20039;-60
2023/05/27 11:52:55;;;;;;;12.57;4.50;;;;;;;;;;4988479;28;20037;-59
2023/05/27 11:55:24;;;;;;;11.77;4.20;;;;;;;;;;4992192;28;20026;-59
2023/05/27 11:57:50;;;;;;;9.65;4.00;;;;;;;;;;4991779;28;20402;-59
2023/05/27 12:00:15;;;;;;;10.85;3.80;;;;;;;;;;4984779;28;20034;-60
2023/05/27 12:02:42;;;;;;;11.02;4.18;;;;;;;;;;4971991;28;20472;-60
2023/05/27 12:05:09;;;;;;;10.93;4.38;;;;;;;;;;4978523;28;20030;-60
2023/05/27 12:07:35;;;;;;;8.52;3.90;;;;;;;;;;4990940;28;20386;-60
2023/05/27 12:10:01;;;;;;;10.38;4.00;;;;;;;;;;4994317;28;20475;-59
2023/05/27 12:12:26;;;;;;;11.80;4.15;;;;;;;;;;4995175;28;20118;-60
2023/05/27 12:14:52;;;;;;;13.30;4.28;;;;;;;;;;4995324;28;20129;-60
2023/05/27 12:17:17;;;;;;;13.07;4.40;;;;;;;;;;4988061;28;20114;-60
2023/05/27 12:19:42;;;;;;;14.02;4.10;;;;;;;;;;4979549;28;20026;-60
2023/05/27 12:22:08;;;;;;;13.70;4.15;;;;;;;;;;4995090;28;20038;-60
2023/05/27 12:24:34;;;;;;;10.18;4.25;;;;;;;;;;4991722;28;20034;-60
2023/05/27 12:27:00;;;;;;;9.68;4.20;;;;;;;;;;4993118;28;20541;-61
2023/05/27 12:29:27;;;;;;;12.57;4.75;;;;;;;;;;4994899;28;20117;-61
2023/05/27 12:31:52;;;;;;;9.38;3.97;;;;;;;;;;4993524;28;20037;-61
2023/05/27 12:34:18;;;;;;;10.00;3.88;;;;;;;;;;4993012;28;20038;-61
2023/05/27 12:36:43;;;;;;;9.85;3.97;;;;;;;;;;4993333;28;20026;-61
2023/05/27 12:39:08;;;;;;;11.10;4.20;;;;;;;;;;4995152;28;20027;-60
2023/05/27 12:41:34;;;;;;;12.80;4.50;;;;;;;;;;4993291;28;20022;-61
2023/05/27 12:43:59;;;;;;;9.80;4.20;;;;;;;;;;4993633;28;20471;-60
2023/05/27 12:46:25;;;;;;;7.72;3.60;;;;;;;;;;4992204;28;20114;-61
2023/05/27 12:48:50;;;;;;;9.55;3.97;;;;;;;;;;4994556;28;20027;-61
2023/05/27 12:51:15;;;;;;;9.07;4.40;;;;;;;;;;4995276;28;20034;-61
2023/05/27 12:53:41;;;;;;;11.32;4.47;;;;;;;;;;4993577;28;20027;-61
2023/05/27 12:56:06;;;;;;;10.63;4.32;;;;;;;;;;4992111;28;20117;-61
2023/05/27 12:58:32;;;;;;;12.13;4.30;;;;;;;;;;4992959;28;20126;-61
2023/05/27 13:00:58;;;;;;;9.05;4.20;;;;;;;;;;4994757;28;20402;-61
2023/05/27 13:03:23;;;;;;;12.90;4.80;;;;;;;;;;4995110;28;20117;-61
2023/05/27 13:05:49;;;;;;;10.60;4.30;;;;;;;;;;4990402;28;20503;-61
2023/05/27 13:08:14;;;;;;;12.38;4.20;;;;;;;;;;4994465;28;20061;-61
2023/05/27 13:10:40;;;;;;;8.90;3.85;;;;;;;;;;4993909;28;20065;-61
2023/05/27 13:13:06;;;;;;;10.98;4.20;;;;;;;;;;4994912;28;20440;-61
2023/05/27 13:15:32;;;;;;;9.80;4.30;;;;;;;;;;4993941;28;20472;-61
2023/05/27 13:17:59;;;;;;;10.43;4.18;;;;;;;;;;4994759;28;20105;-60
2023/05/27 13:20:25;;;;;;;13.43;4.50;;;;;;;;;;4992706;28;20073;-61
2023/05/27 13:22:52;;;;;;;10.30;4.65;;;;;;;;;;4993938;28;20030;-61
2023/05/27 13:25:18;;;;;;;10.45;4.03;;;;;;;;;;4994538;28;20034;-61
2023/05/27 13:27:47;;;;;;;10.55;4.60;;;;;;;;;;4993829;28;20026;-61
2023/05/27 13:30:15;;;;;;;11.65;4.57;;;;;;;;;;4994163;28;20376;-61
2023/05/27 13:32:42;;;;;;;9.63;3.88;;;;;;;;;;4992342;28;20042;-61
2023/05/27 13:35:09;;;;;;;11.18;4.28;;;;;;;;;;4991217;28;20113;-61
2023/05/27 13:37:34;;;;;;;13.73;4.63;;;;;;;;;;4993661;28;20034;-61
2023/05/27 13:40:00;;;;;;;11.48;4.50;;;;;;;;;;4994175;28;20050;-60
2023/05/27 13:42:26;;;;;;;9.93;4.72;;;;;;;;;;4994270;28;20026;-61
2023/05/27 13:44:52;;;;;;;10.90;4.57;;;;;;;;;;4993281;28;20033;-61
2023/05/27 13:47:17;;;;;;;11.75;4.22;;;;;;;;;;4993888;28;20108;-61
2023/05/27 13:49:43;;;;;;;10.30;4.57;;;;;;;;;;4991882;28;20034;-61
2023/05/27 13:52:08;;;;;;;8.98;4.18;;;;;;;;;;4992563;28;20037;-61
2023/05/27 13:54:34;;;;;;;9.02;4.13;;;;;;;;;;4993024;28;20112;-61
2023/05/27 13:56:59;;;;;;;13.75;4.45;;;;;;;;;;4993863;28;20037;-61
2023/05/27 13:59:24;;;;;;;11.38;4.47;;;;;;;;;;4993663;28;20466;-61
2023/05/27 14:01:50;;;;;;;10.18;4.50;;;;;;;;;;4993106;28;20279;-59
2023/05/27 14:04:16;;;;;;;12.13;4.47;;;;;;;;;;4993528;28;20027;-59
2023/05/27 14:06:41;;;;;;;9.48;4.10;;;;;;;;;;4990278;28;20030;-60
2023/05/27 14:09:07;;;;;;;12.38;4.80;;;;;;;;;;4993843;28;20538;-60
2023/05/27 14:11:32;;;;;;;9.20;4.13;;;;;;;;;;4993058;28;20026;-60
2023/05/27 14:13:59;;;;;;;9.52;4.35;;;;;;;;;;4993543;28;20360;-60
2023/05/27 14:16:24;;;;;;;9.70;4.40;;;;;;;;;;4993386;28;20026;-60
2023/05/27 14:18:49;;;;;;;11.32;4.30;;;;;;;;;;4991530;28;20618;-60
2023/05/27 14:21:16;;;;;;;12.40;4.53;;;;;;;;;;4992558;28;20094;-60
2023/05/27 14:23:41;;;;;;;9.30;4.20;;;;;;;;;;4989304;28;20109;-61
2023/05/27 14:26:06;;;;;;;11.32;4.07;;;;;;;;;;4993120;28;20114;-60
2023/05/27 14:28:32;;;;;;;13.10;5.53;;;;;;;;;;4991893;28;20475;-61
2023/05/27 14:30:58;;;;;;;10.43;4.35;;;;;;;;;;4992903;28;20065;-60